createdAt,value
2018-11-27T00:00:36.371Z,2.73
2018-11-27T00:03:11.897Z,2.74
2018-11-27T00:05:47.549Z,2.74
2018-11-27T00:08:23.203Z,2.78
2018-11-27T00:10:58.886Z,2.73
2018-11-27T00:13:34.488Z,2.79
2018-11-27T00:16:10.216Z,2.79
2018-11-27T00:18:45.761Z,2.83
2018-11-27T00:21:21.497Z,2.86
2018-11-27T00:23:57.085Z,2.87
2018-11-27T00:26:32.673Z,2.87
2018-11-27T00:29:08.268Z,2.78
2018-11-27T00:31:43.971Z,2.75
2018-11-27T00:34:19.765Z,2.76
2018-11-27T00:36:55.268Z,2.75
2018-11-27T00:39:30.815Z,2.76
2018-11-27T00:42:06.608Z,2.76
2018-11-27T00:44:42.755Z,2.79
2018-11-27T00:47:18.641Z,2.80
2018-11-27T00:49:54.396Z,2.75
2018-11-27T00:52:30.391Z,2.74
2018-11-27T00:55:06.956Z,2.71
2018-11-27T00:57:43.875Z,2.70
2018-11-27T01:00:21.817Z,2.67
2018-11-27T01:02:57.538Z,2.62
2018-11-27T01:05:33.109Z,2.61
2018-11-27T01:08:08.750Z,2.57
2018-11-27T01:10:44.389Z,2.52
2018-11-27T01:13:20.107Z,2.44
2018-11-27T01:15:55.653Z,2.39
2018-11-27T01:18:31.173Z,2.43
2018-11-27T01:21:07.326Z,2.40
2018-11-27T01:23:42.936Z,2.40
2018-11-27T01:26:18.562Z,2.29
2018-11-27T01:28:54.288Z,2.24
2018-11-27T01:31:30.100Z,2.15
2018-11-27T01:34:05.854Z,2.11
2018-11-27T01:36:41.517Z,2.07
2018-11-27T01:39:17.170Z,2.05
2018-11-27T01:41:52.628Z,2.02
2018-11-27T01:44:28.383Z,1.97
2018-11-27T01:47:04.181Z,1.95
2018-11-27T01:49:39.666Z,1.90
2018-11-27T01:52:15.364Z,1.89
2018-11-27T01:54:50.863Z,1.84
2018-11-27T01:57:26.459Z,1.80
2018-11-27T02:00:02.011Z,1.77
2018-11-27T02:02:37.674Z,1.77
2018-11-27T02:05:13.832Z,1.75
2018-11-27T02:07:49.639Z,1.70
2018-11-27T02:10:25.253Z,1.67
2018-11-27T02:13:01.385Z,1.59
2018-11-27T02:15:36.505Z,1.56
2018-11-27T02:18:12.257Z,1.52
2018-11-27T02:20:47.969Z,1.50
2018-11-27T02:23:23.582Z,1.45
2018-11-27T02:25:59.442Z,1.42
2018-11-27T02:28:35.091Z,1.38
2018-11-27T02:31:10.892Z,1.35
2018-11-27T02:33:46.419Z,1.35
2018-11-27T02:36:22.011Z,1.36
2018-11-27T02:38:57.554Z,1.37
2018-11-27T02:41:33.061Z,1.38
2018-11-27T02:44:08.679Z,1.37
2018-11-27T02:46:44.484Z,1.34
2018-11-27T02:49:20.085Z,1.34
2018-11-27T02:51:55.725Z,1.32
2018-11-27T02:54:31.250Z,1.28
2018-11-27T02:57:06.995Z,1.26
2018-11-27T02:59:43.172Z,1.28
2018-11-27T03:02:19.022Z,1.26
2018-11-27T03:04:54.597Z,1.26
2018-11-27T03:07:30.249Z,1.30
2018-11-27T03:10:09.234Z,1.31
2018-11-27T03:12:44.929Z,1.32
2018-11-27T03:15:21.576Z,1.33
2018-11-27T03:17:57.128Z,1.36
2018-11-27T03:20:32.856Z,1.41
2018-11-27T03:23:08.524Z,1.44
2018-11-27T03:25:44.176Z,1.46
2018-11-27T03:28:19.813Z,1.47
2018-11-27T03:30:55.598Z,1.50
2018-11-27T03:33:31.212Z,1.51
2018-11-27T03:36:07.043Z,1.54
2018-11-27T03:38:43.571Z,1.56
2018-11-27T03:41:19.365Z,1.60
2018-11-27T03:43:54.928Z,1.66
2018-11-27T03:46:30.517Z,1.66
2018-11-27T03:49:06.906Z,1.67
2018-11-27T03:51:42.467Z,1.67
2018-11-27T03:54:18.906Z,1.72
2018-11-27T03:56:54.781Z,1.73
2018-11-27T03:59:30.459Z,1.73
2018-11-27T04:02:06.276Z,1.74
2018-11-27T04:04:42.271Z,1.75
2018-11-27T04:07:17.908Z,1.76
2018-11-27T04:09:53.525Z,1.75
2018-11-27T04:12:29.101Z,1.76
2018-11-27T04:15:05.413Z,1.74
2018-11-27T04:17:41.083Z,1.75
2018-11-27T04:20:16.740Z,1.77
2018-11-27T04:22:52.383Z,1.88
2018-11-27T04:25:27.973Z,1.88
2018-11-27T04:28:03.564Z,1.89
2018-11-27T04:30:39.208Z,1.91
2018-11-27T04:33:14.830Z,1.92
2018-11-27T04:35:50.693Z,1.93
2018-11-27T04:38:26.299Z,1.94
2018-11-27T04:41:02.092Z,1.90
2018-11-27T04:43:37.749Z,1.88
2018-11-27T04:46:13.461Z,1.87
2018-11-27T04:48:49.158Z,1.87
2018-11-27T04:51:24.938Z,1.88
2018-11-27T04:54:00.459Z,1.85
2018-11-27T04:56:36.094Z,1.86
2018-11-27T04:59:11.644Z,1.83
2018-11-27T05:01:47.437Z,1.82
2018-11-27T05:04:23.096Z,1.80
2018-11-27T05:06:58.908Z,1.81
2018-11-27T05:09:34.618Z,1.76
2018-11-27T05:12:10.323Z,1.73
2018-11-27T05:14:46.395Z,1.72
2018-11-27T05:17:22.034Z,1.64
2018-11-27T05:19:58.050Z,1.58
2018-11-27T05:22:33.705Z,1.56
2018-11-27T05:25:19.483Z,1.53
2018-11-27T05:27:57.568Z,1.46
2018-11-27T05:30:33.010Z,1.43
2018-11-27T05:33:09.336Z,1.43
2018-11-27T05:35:44.944Z,1.43
2018-11-27T05:38:20.635Z,1.43
2018-11-27T05:40:56.261Z,1.45
2018-11-27T05:43:32.175Z,1.42
2018-11-27T05:46:08.232Z,1.42
2018-11-27T05:48:43.910Z,1.42
2018-11-27T05:51:19.607Z,1.43
2018-11-27T05:53:55.378Z,1.43
2018-11-27T05:56:31.015Z,1.42
2018-11-27T05:59:06.860Z,1.38
2018-11-27T06:01:42.434Z,1.38
2018-11-27T06:04:18.220Z,1.36
2018-11-27T06:06:53.805Z,1.35
2018-11-27T06:09:29.332Z,1.34
2018-11-27T06:12:05.434Z,1.32
2018-11-27T06:14:40.974Z,1.30
2018-11-27T06:17:16.504Z,1.25
2018-11-27T06:19:52.097Z,1.23
2018-11-27T06:22:27.723Z,1.20
2018-11-27T06:25:03.350Z,1.18
2018-11-27T06:27:39.384Z,1.18
2018-11-27T06:30:17.690Z,1.14
2018-11-27T06:32:53.512Z,1.14
2018-11-27T06:35:37.125Z,1.10
2018-11-27T06:38:13.309Z,1.06
2018-11-27T06:40:48.884Z,1.03
2018-11-27T06:43:24.621Z,0.99
2018-11-27T06:46:00.185Z,1.00
2018-11-27T06:48:35.855Z,1.00
2018-11-27T06:51:11.551Z,0.96
2018-11-27T06:53:47.138Z,0.96
2018-11-27T06:56:22.691Z,0.99
2018-11-27T06:58:58.249Z,0.99
2018-11-27T07:01:33.932Z,1.00
2018-11-27T07:04:09.738Z,0.99
2018-11-27T07:06:45.738Z,0.98
2018-11-27T07:09:21.517Z,0.99
2018-11-27T07:11:57.189Z,1.01
2018-11-27T07:14:32.834Z,1.00
2018-11-27T07:17:08.506Z,1.01
2018-11-27T07:19:44.297Z,1.02
2018-11-27T07:22:19.792Z,1.00
2018-11-27T07:24:55.469Z,1.03
2018-11-27T07:27:31.266Z,1.00
2018-11-27T07:30:14.521Z,1.00
2018-11-27T07:32:50.218Z,1.00
2018-11-27T07:35:25.778Z,1.02
2018-11-27T07:38:01.532Z,1.02
2018-11-27T07:40:37.489Z,1.07
2018-11-27T07:43:14.912Z,1.07
2018-11-27T07:45:55.248Z,1.10
2018-11-27T07:48:26.305Z,1.10
2018-11-27T07:51:02.177Z,1.09
2018-11-27T07:53:37.972Z,1.11
2018-11-27T07:56:13.492Z,1.14
2018-11-27T07:58:49.261Z,1.16
2018-11-27T08:01:25.011Z,1.16
2018-11-27T08:04:00.556Z,1.12
2018-11-27T08:06:36.329Z,1.04
2018-11-27T08:09:12.008Z,1.08
2018-11-27T08:11:47.688Z,1.10
2018-11-27T08:14:23.299Z,1.12
2018-11-27T08:16:58.948Z,1.15
2018-11-27T08:19:34.609Z,1.23
2018-11-27T08:22:10.223Z,1.31
2018-11-27T08:24:45.721Z,1.39
2018-11-27T08:27:21.583Z,1.46
2018-11-27T08:29:57.400Z,1.51
2018-11-27T08:32:33.087Z,1.54
2018-11-27T08:35:13.818Z,1.66
2018-11-27T08:37:50.652Z,1.79
2018-11-27T08:40:27.896Z,1.88
2018-11-27T08:43:03.788Z,1.93
2018-11-27T08:45:39.418Z,1.98
2018-11-27T08:48:14.949Z,2.05
2018-11-27T08:50:50.739Z,2.13
2018-11-27T08:53:26.380Z,2.27
2018-11-27T08:56:02.134Z,2.41
2018-11-27T08:58:37.930Z,2.51
2018-11-27T09:01:13.545Z,2.54
2018-11-27T09:03:49.292Z,2.49
2018-11-27T09:06:24.916Z,2.40
2018-11-27T09:09:00.786Z,2.32
2018-11-27T09:11:36.559Z,2.22
2018-11-27T09:14:12.147Z,2.28
2018-11-27T09:16:47.957Z,2.62
2018-11-27T09:19:23.736Z,3.19
2018-11-27T09:21:59.512Z,3.85
2018-11-27T09:24:35.137Z,4.75
2018-11-27T09:27:10.731Z,5.43
2018-11-27T09:29:46.454Z,5.79
2018-11-27T09:32:22.053Z,5.78
2018-11-27T09:34:57.696Z,5.90
2018-11-27T09:37:33.248Z,5.87
2018-11-27T09:40:17.217Z,5.57
2018-11-27T09:42:53.038Z,5.65
2018-11-27T09:45:28.664Z,5.73
2018-11-27T09:48:04.327Z,5.89
2018-11-27T09:50:39.898Z,6.06
2018-11-27T09:53:16.532Z,6.00
2018-11-27T09:55:52.039Z,5.99
2018-11-27T09:58:27.644Z,5.90
2018-11-27T10:01:03.260Z,5.51
2018-11-27T10:03:39.369Z,5.43
2018-11-27T10:06:14.985Z,5.46
2018-11-27T10:08:50.666Z,5.45
2018-11-27T10:11:26.221Z,5.32
2018-11-27T10:14:01.852Z,5.31
2018-11-27T10:16:37.390Z,5.12
2018-11-27T10:19:12.857Z,5.16
2018-11-27T10:21:48.531Z,5.17
2018-11-27T10:24:24.241Z,5.15
2018-11-27T10:26:59.955Z,5.05
2018-11-27T10:29:35.503Z,5.01
2018-11-27T10:32:11.371Z,4.63
2018-11-27T10:34:47.000Z,4.67
2018-11-27T10:37:22.616Z,4.26
2018-11-27T10:39:58.119Z,4.19
2018-11-27T10:42:33.819Z,4.34
2018-11-27T10:45:13.108Z,4.26
2018-11-27T10:47:51.392Z,4.52
2018-11-27T10:50:27.148Z,4.81
2018-11-27T10:53:02.800Z,5.13
2018-11-27T10:55:38.368Z,5.34
2018-11-27T10:58:13.894Z,5.18
2018-11-27T11:00:54.771Z,5.37
2018-11-27T11:03:37.096Z,5.26
2018-11-27T11:06:13.015Z,4.59
2018-11-27T11:08:48.643Z,4.33
2018-11-27T11:11:24.189Z,4.42
2018-11-27T11:13:59.770Z,3.80
2018-11-27T11:16:35.294Z,3.86
2018-11-27T11:19:11.057Z,3.57
2018-11-27T11:21:46.639Z,3.55
2018-11-27T11:24:22.204Z,3.40
2018-11-27T11:26:57.808Z,3.65
2018-11-27T11:29:33.357Z,3.83
2018-11-27T11:32:09.019Z,3.80
2018-11-27T11:34:44.708Z,3.93
2018-11-27T11:37:20.449Z,3.60
2018-11-27T11:39:56.465Z,3.38
2018-11-27T11:42:32.194Z,3.33
2018-11-27T11:45:09.544Z,3.48
2018-11-27T11:47:45.305Z,3.55
2018-11-27T11:50:28.490Z,3.42
2018-11-27T11:53:08.600Z,3.53
2018-11-27T11:55:44.439Z,3.43
2018-11-27T11:58:20.025Z,3.59
2018-11-27T12:00:56.616Z,3.71
2018-11-27T12:03:32.288Z,3.48
2018-11-27T12:06:07.940Z,3.38
2018-11-27T12:08:43.792Z,3.75
2018-11-27T12:11:19.403Z,3.88
2018-11-27T12:13:55.367Z,3.92
2018-11-27T12:16:30.956Z,3.99
2018-11-27T12:19:06.999Z,4.10
2018-11-27T12:21:42.604Z,4.06
2018-11-27T12:24:18.365Z,4.13
2018-11-27T12:26:53.915Z,4.21
2018-11-27T12:29:29.749Z,4.39
2018-11-27T12:32:05.360Z,4.28
2018-11-27T12:34:41.304Z,3.94
2018-11-27T12:37:16.832Z,4.09
2018-11-27T12:39:52.568Z,3.83
2018-11-27T12:42:29.892Z,4.11
2018-11-27T12:45:06.042Z,4.19
2018-11-27T12:47:42.531Z,3.82
2018-11-27T12:50:24.791Z,3.91
2018-11-27T12:53:00.811Z,4.28
2018-11-27T12:55:36.667Z,4.45
2018-11-27T12:58:12.272Z,4.62
2018-11-27T13:00:48.047Z,4.71
2018-11-27T13:03:23.695Z,4.15
2018-11-27T13:05:59.305Z,4.35
2018-11-27T13:08:35.412Z,4.53
2018-11-27T13:11:11.582Z,4.67
2018-11-27T13:13:46.747Z,4.72
2018-11-27T13:16:22.344Z,4.74
2018-11-27T13:18:58.103Z,4.81
2018-11-27T13:21:33.728Z,4.81
2018-11-27T13:24:09.392Z,4.59
2018-11-27T13:26:44.930Z,4.45
2018-11-27T13:29:20.473Z,4.79
2018-11-27T13:31:56.073Z,4.83
2018-11-27T13:34:31.656Z,4.94
2018-11-27T13:37:07.519Z,4.97
2018-11-27T13:39:43.085Z,5.03
2018-11-27T13:42:18.741Z,5.01
2018-11-27T13:44:54.243Z,5.04
2018-11-27T13:47:29.724Z,4.80
2018-11-27T13:50:06.548Z,4.78
2018-11-27T13:52:42.152Z,4.76
2018-11-27T13:55:21.699Z,4.73
2018-11-27T13:57:57.609Z,4.56
2018-11-27T14:00:33.324Z,4.59
2018-11-27T14:03:10.965Z,4.53
2018-11-27T14:05:45.676Z,4.46
2018-11-27T14:08:21.355Z,4.41
2018-11-27T14:10:57.114Z,4.44
2018-11-27T14:13:32.838Z,4.44
2018-11-27T14:16:08.546Z,4.48
2018-11-27T14:18:44.190Z,4.38
2018-11-27T14:21:19.787Z,4.26
2018-11-27T14:23:55.653Z,4.11
2018-11-27T14:26:31.284Z,4.02
2018-11-27T14:29:07.608Z,3.98
2018-11-27T14:31:43.223Z,3.94
2018-11-27T14:34:18.830Z,3.95
2018-11-27T14:36:54.594Z,3.93
2018-11-27T14:39:30.494Z,3.91
2018-11-27T14:42:06.421Z,3.68
2018-11-27T14:44:42.103Z,3.48
2018-11-27T14:47:17.809Z,3.34
2018-11-27T14:49:53.363Z,3.21
2018-11-27T14:52:28.893Z,3.11
2018-11-27T14:55:04.636Z,3.12
2018-11-27T14:57:40.178Z,3.07
2018-11-27T15:00:19.310Z,3.06
2018-11-27T15:02:55.165Z,3.04
2018-11-27T15:05:37.835Z,3.04
2018-11-27T15:08:14.468Z,3.03
2018-11-27T15:10:50.260Z,3.02
2018-11-27T15:13:25.849Z,2.98
2018-11-27T15:16:01.769Z,2.98
2018-11-27T15:18:38.173Z,2.93
2018-11-27T15:21:13.905Z,2.94
2018-11-27T15:23:49.608Z,2.93
2018-11-27T15:26:25.183Z,2.98
2018-11-27T15:29:00.796Z,3.00
2018-11-27T15:31:36.557Z,3.00
2018-11-27T15:34:12.289Z,3.04
2018-11-27T15:36:47.945Z,2.96
2018-11-27T15:39:23.631Z,2.93
2018-11-27T15:41:59.352Z,2.87
2018-11-27T15:44:35.203Z,2.83
2018-11-27T15:47:10.937Z,2.76
2018-11-27T15:49:46.595Z,2.75
2018-11-27T15:52:22.240Z,2.69
2018-11-27T15:54:57.952Z,2.66
2018-11-27T15:57:33.511Z,2.61
2018-11-27T16:00:18.752Z,2.60
2018-11-27T16:02:54.303Z,2.62
2018-11-27T16:05:30.082Z,2.60
2018-11-27T16:08:05.804Z,2.60
2018-11-27T16:10:41.464Z,2.61
2018-11-27T16:13:16.974Z,2.60
2018-11-27T16:15:52.674Z,2.61
2018-11-27T16:18:28.360Z,2.61
2018-11-27T16:21:04.032Z,2.62
2018-11-27T16:23:39.888Z,2.59
2018-11-27T16:26:16.090Z,2.55
2018-11-27T16:28:51.796Z,2.63
2018-11-27T16:31:27.383Z,2.62
2018-11-27T16:34:03.131Z,2.62
2018-11-27T16:36:39.010Z,2.63
2018-11-27T16:39:14.537Z,2.69
2018-11-27T16:41:50.094Z,2.68
2018-11-27T16:44:25.678Z,2.69
2018-11-27T16:47:01.724Z,2.70
2018-11-27T16:49:37.864Z,2.71
2018-11-27T16:52:13.548Z,2.74
2018-11-27T16:54:49.977Z,2.76
2018-11-27T16:57:25.720Z,2.76
2018-11-27T17:00:01.633Z,2.81
2018-11-27T17:02:37.293Z,2.79
2018-11-27T17:05:13.146Z,2.75
2018-11-27T17:07:48.967Z,2.74
2018-11-27T17:10:24.878Z,2.72
2018-11-27T17:13:00.753Z,2.70
2018-11-27T17:15:36.306Z,2.66
2018-11-27T17:18:13.117Z,2.63
2018-11-27T17:20:48.837Z,2.63
2018-11-27T17:23:24.447Z,2.64
2018-11-27T17:26:04.035Z,2.67
2018-11-27T17:28:35.982Z,2.68
2018-11-27T17:31:13.532Z,2.70
2018-11-27T17:34:03.431Z,2.69
2018-11-27T17:36:40.276Z,2.68
2018-11-27T17:39:15.833Z,2.69
2018-11-27T17:41:51.401Z,2.66
2018-11-27T17:44:27.181Z,2.65
2018-11-27T17:47:02.771Z,2.66
2018-11-27T17:49:38.329Z,2.68
2018-11-27T17:52:14.015Z,2.72
2018-11-27T17:54:49.738Z,2.68
2018-11-27T17:57:25.912Z,2.66
2018-11-27T18:00:01.620Z,2.60
2018-11-27T18:02:37.216Z,2.60
2018-11-27T18:05:13.041Z,2.58
2018-11-27T18:07:49.121Z,2.59
2018-11-27T18:10:24.728Z,2.58
2018-11-27T18:13:00.433Z,2.59
2018-11-27T18:15:37.028Z,2.52
2018-11-27T18:18:12.806Z,2.53
2018-11-27T18:20:48.391Z,2.52
2018-11-27T18:23:24.066Z,2.53
2018-11-27T18:26:00.770Z,2.52
2018-11-27T18:28:36.603Z,2.49
2018-11-27T18:31:12.175Z,2.52
2018-11-27T18:33:47.800Z,2.53
2018-11-27T18:36:25.841Z,2.53
2018-11-27T18:38:59.264Z,2.58
2018-11-27T18:41:35.513Z,2.59
2018-11-27T18:44:11.196Z,2.60
2018-11-27T18:46:47.351Z,2.55
2018-11-27T18:49:23.453Z,2.50
2018-11-27T18:51:59.343Z,2.49
2018-11-27T18:54:34.883Z,2.49
2018-11-27T18:57:10.573Z,2.46
2018-11-27T18:59:46.324Z,2.43
2018-11-27T19:02:22.386Z,2.38
2018-11-27T19:04:58.066Z,2.39
2018-11-27T19:07:33.929Z,2.39
2018-11-27T19:10:13.588Z,2.36
2018-11-27T19:12:50.175Z,2.37
2018-11-27T19:15:37.634Z,2.38
2018-11-27T19:18:27.953Z,2.38
2018-11-27T19:21:03.776Z,2.35
2018-11-27T19:23:39.408Z,2.38
2018-11-27T19:26:15.022Z,2.43
2018-11-27T19:28:50.860Z,2.40
2018-11-27T19:31:26.857Z,2.38
2018-11-27T19:34:03.651Z,2.37
2018-11-27T19:36:39.474Z,2.39
2018-11-27T19:39:15.260Z,2.40
2018-11-27T19:41:51.833Z,2.38
2018-11-27T19:44:27.559Z,2.37
2018-11-27T19:47:03.179Z,2.41
2018-11-27T19:49:39.551Z,2.40
2018-11-27T19:52:16.415Z,2.43
2018-11-27T19:54:52.120Z,2.44
2018-11-27T19:57:27.791Z,2.44
2018-11-27T20:00:03.714Z,2.48
2018-11-27T20:02:39.311Z,2.50
2018-11-27T20:05:16.797Z,2.44
2018-11-27T20:07:52.676Z,2.43
2018-11-27T20:10:28.314Z,2.39
2018-11-27T20:13:05.686Z,2.39
2018-11-27T20:15:41.673Z,2.43
2018-11-27T20:18:17.571Z,2.43
2018-11-27T20:20:53.288Z,2.44
2018-11-27T20:23:28.880Z,2.43
2018-11-27T20:26:04.644Z,2.44
2018-11-27T20:28:40.512Z,2.46
2018-11-27T20:31:16.386Z,2.46
2018-11-27T20:33:54.308Z,2.45
2018-11-27T20:36:30.087Z,2.44
2018-11-27T20:39:09.044Z,2.46
2018-11-27T20:41:44.596Z,2.49
2018-11-27T20:44:20.301Z,2.46
2018-11-27T20:46:56.733Z,2.46
2018-11-27T20:49:32.211Z,2.43
2018-11-27T20:52:08.439Z,2.44
2018-11-27T20:54:44.125Z,2.42
2018-11-27T20:57:19.740Z,2.38
2018-11-27T20:59:55.618Z,2.38
2018-11-27T21:02:31.459Z,2.37
2018-11-27T21:05:08.175Z,2.41
2018-11-27T21:07:44.157Z,2.39
2018-11-27T21:10:20.189Z,2.37
2018-11-27T21:12:56.179Z,2.34
2018-11-27T21:15:32.177Z,2.34
2018-11-27T21:18:09.790Z,2.28
2018-11-27T21:20:45.662Z,2.25
2018-11-27T21:23:21.465Z,2.22
2018-11-27T21:26:01.946Z,2.24
2018-11-27T21:28:38.012Z,2.28
2018-11-27T21:31:13.743Z,2.24
2018-11-27T21:33:49.690Z,2.21
2018-11-27T21:36:25.989Z,2.18
2018-11-27T21:39:02.015Z,2.15
2018-11-27T21:41:37.989Z,2.12
2018-11-27T21:44:14.084Z,2.09
2018-11-27T21:46:49.779Z,2.10
2018-11-27T21:49:26.249Z,2.11
2018-11-27T21:52:02.169Z,2.15
2018-11-27T21:54:38.192Z,2.18
2018-11-27T21:57:13.968Z,2.16
2018-11-27T21:59:50.519Z,2.14
2018-11-27T22:02:26.280Z,2.16
2018-11-27T22:05:02.238Z,2.14
2018-11-27T22:07:38.334Z,2.11
2018-11-27T22:10:16.501Z,2.08
2018-11-27T22:12:57.061Z,2.06
2018-11-27T22:15:38.770Z,2.04
2018-11-27T22:18:15.261Z,2.00
2018-11-27T22:20:51.277Z,1.94
2018-11-27T22:23:26.985Z,1.88
2018-11-27T22:26:03.098Z,1.86
2018-11-27T22:28:39.176Z,1.77
2018-11-27T22:31:15.180Z,1.65
2018-11-27T22:33:51.073Z,1.53
2018-11-27T22:36:26.691Z,1.39
2018-11-27T22:39:02.525Z,1.23
2018-11-27T22:41:38.452Z,1.13
2018-11-27T22:44:14.500Z,1.20
2018-11-27T22:46:50.440Z,1.18
2018-11-27T22:49:26.310Z,1.13
2018-11-27T22:52:01.966Z,1.17
2018-11-27T22:54:38.704Z,1.10
2018-11-27T22:57:14.487Z,1.02
2018-11-27T22:59:50.377Z,0.95
2018-11-27T23:02:26.271Z,0.89
2018-11-27T23:05:01.979Z,0.71
2018-11-27T23:07:41.946Z,0.52
2018-11-27T23:10:17.918Z,0.28
2018-11-27T23:12:54.185Z,0.12
2018-11-27T23:15:30.137Z,0.23
2018-11-27T23:18:06.319Z,0.28
2018-11-27T23:20:42.124Z,0.39
2018-11-27T23:23:18.158Z,0.29
2018-11-27T23:25:54.041Z,0.21
2018-11-27T23:28:29.764Z,0.16
2018-11-27T23:31:05.784Z,0.19
2018-11-27T23:33:41.472Z,0.16
2018-11-27T23:36:17.146Z,0.25
2018-11-27T23:38:52.999Z,0.39
2018-11-27T23:41:28.856Z,0.52
2018-11-27T23:44:04.970Z,0.59
2018-11-27T23:46:40.792Z,0.76
2018-11-27T23:49:16.729Z,0.88
2018-11-27T23:51:52.441Z,0.92
2018-11-27T23:54:28.540Z,0.97
2018-11-27T23:57:04.590Z,1.06
2018-11-27T23:59:40.442Z,1.06
